In Rescue
 
Open Full Screen Window  High Contrast Mode
Wind Gusting 19 knots
12
November 29, 2022 8:44 AM EST
Weather Information
Wind Direction
  170 °
Wind Speed
  12 kt (14 mph)
Wind Gust
  19 kt (22 mph)
Altimeter
29.82 in
Visibility
7 SM
Temperature
05° C
41° F
Dewpoint
04° C
39° F
Humidity
93%
1hr Rain Fall
00.00 in.
24hr Rain Fall
00.00 in.
Sky Condition
Overcast @ 2,500 ft
Broken @ 2,000 ft
Scattered @ 1,200 ft
MVFR

METAR KISQ 291344Z AUTO 17012G19KT 7SM SCT012 BKN020 OVC025 05/04 A2982 RMK AO2 T00500035

FAA Disclaimer: The data displayed is for advisory purposes only and is not to be used for flight planning or operations.